sensor_id;sensor_type;location;lat;lon;timestamp;temperature;humidity
27226;DHT22;14732;51.074;3.788;2023-04-25T00:01:33;11.00;99.90
27226;DHT22;14732;51.074;3.788;2023-04-25T00:04:02;11.00;99.90
27226;DHT22;14732;51.074;3.788;2023-04-25T00:06:28;11.00;99.90
27226;DHT22;14732;51.074;3.788;2023-04-25T00:08:55;11.00;99.90
27226;DHT22;14732;51.074;3.788;2023-04-25T00:11:22;11.10;99.90
27226;DHT22;14732;51.074;3.788;2023-04-25T00:13:48;11.20;99.90
27226;DHT22;14732;51.074;3.788;2023-04-25T00:16:15;11.20;99.90
27226;DHT22;14732;51.074;3.788;2023-04-25T00:18:44;11.30;99.90
27226;DHT22;14732;51.074;3.788;2023-04-25T00:21:11;11.30;99.90
27226;DHT22;14732;51.074;3.788;2023-04-25T00:23:37;11.30;99.90
27226;DHT22;14732;51.074;3.788;2023-04-25T00:26:04;11.30;99.90
27226;DHT22;14732;51.074;3.788;2023-04-25T00:28:30;11.30;99.90
27226;DHT22;14732;51.074;3.788;2023-04-25T00:30:55;11.20;99.90
27226;DHT22;14732;51.074;3.788;2023-04-25T00:33:21;11.30;99.90
27226;DHT22;14732;51.074;3.788;2023-04-25T00:35:47;11.30;99.90
27226;DHT22;14732;51.074;3.788;2023-04-25T00:38:12;11.30;99.90
27226;DHT22;14732;51.074;3.788;2023-04-25T00:40:38;11.30;99.90
27226;DHT22;14732;51.074;3.788;2023-04-25T00:43:04;11.30;99.90
27226;DHT22;14732;51.074;3.788;2023-04-25T00:45:30;11.30;99.90
27226;DHT22;14732;51.074;3.788;2023-04-25T00:47:56;11.30;99.90
27226;DHT22;14732;51.074;3.788;2023-04-25T00:50:22;11.30;99.90
27226;DHT22;14732;51.074;3.788;2023-04-25T00:52:48;11.40;99.90
27226;DHT22;14732;51.074;3.788;2023-04-25T00:55:14;11.40;99.90
27226;DHT22;14732;51.074;3.788;2023-04-25T00:57:41;11.30;99.90
27226;DHT22;14732;51.074;3.788;2023-04-25T01:00:08;11.30;99.90
27226;DHT22;14732;51.074;3.788;2023-04-25T01:02:35;11.30;99.90
27226;DHT22;14732;51.074;3.788;2023-04-25T01:05:02;11.20;99.90
27226;DHT22;14732;51.074;3.788;2023-04-25T01:07:28;11.20;99.90
27226;DHT22;14732;51.074;3.788;2023-04-25T01:09:54;11.10;99.90
27226;DHT22;14732;51.074;3.788;2023-04-25T01:12:20;11.10;99.90
27226;DHT22;14732;51.074;3.788;2023-04-25T01:14:46;11.10;99.90
27226;DHT22;14732;51.074;3.788;2023-04-25T01:17:13;11.00;99.90
27226;DHT22;14732;51.074;3.788;2023-04-25T01:19:38;11.00;99.90
27226;DHT22;14732;51.074;3.788;2023-04-25T01:22:05;11.00;99.90
27226;DHT22;14732;51.074;3.788;2023-04-25T01:24:33;10.90;99.90
27226;DHT22;14732;51.074;3.788;2023-04-25T01:27:00;10.90;99.90
27226;DHT22;14732;51.074;3.788;2023-04-25T01:29:27;10.80;99.90
27226;DHT22;14732;51.074;3.788;2023-04-25T01:31:54;10.60;99.90
27226;DHT22;14732;51.074;3.788;2023-04-25T01:34:20;10.50;99.90
27226;DHT22;14732;51.074;3.788;2023-04-25T01:36:49;10.50;99.90
27226;DHT22;14732;51.074;3.788;2023-04-25T01:39:15;10.50;99.90
27226;DHT22;14732;51.074;3.788;2023-04-25T01:41:41;10.60;99.90
27226;DHT22;14732;51.074;3.788;2023-04-25T01:44:07;10.60;99.90
27226;DHT22;14732;51.074;3.788;2023-04-25T01:46:34;10.50;99.90
27226;DHT22;14732;51.074;3.788;2023-04-25T01:49:00;10.40;99.90
27226;DHT22;14732;51.074;3.788;2023-04-25T01:51:26;10.60;99.90
27226;DHT22;14732;51.074;3.788;2023-04-25T01:53:52;10.70;99.90
27226;DHT22;14732;51.074;3.788;2023-04-25T01:56:18;10.60;99.90
27226;DHT22;14732;51.074;3.788;2023-04-25T01:58:45;10.40;99.90
27226;DHT22;14732;51.074;3.788;2023-04-25T02:01:11;10.40;99.90
27226;DHT22;14732;51.074;3.788;2023-04-25T02:03:37;10.50;99.90
27226;DHT22;14732;51.074;3.788;2023-04-25T02:06:03;10.60;99.90
27226;DHT22;14732;51.074;3.788;2023-04-25T02:08:28;10.50;99.90
27226;DHT22;14732;51.074;3.788;2023-04-25T02:10:55;10.40;99.90
27226;DHT22;14732;51.074;3.788;2023-04-25T02:13:21;10.20;99.90
27226;DHT22;14732;51.074;3.788;2023-04-25T02:15:46;10.20;99.90
27226;DHT22;14732;51.074;3.788;2023-04-25T02:18:12;10.10;99.90
27226;DHT22;14732;51.074;3.788;2023-04-25T02:20:38;10.10;99.90
27226;DHT22;14732;51.074;3.788;2023-04-25T02:23:04;10.10;99.90
27226;DHT22;14732;51.074;3.788;2023-04-25T02:25:30;10.00;99.90
27226;DHT22;14732;51.074;3.788;2023-04-25T02:27:55;10.10;99.90
27226;DHT22;14732;51.074;3.788;2023-04-25T02:30:21;10.00;99.90
27226;DHT22;14732;51.074;3.788;2023-04-25T02:32:46;9.90;99.90
27226;DHT22;14732;51.074;3.788;2023-04-25T02:35:12;10.10;99.90
27226;DHT22;14732;51.074;3.788;2023-04-25T02:37:39;10.20;99.90
27226;DHT22;14732;51.074;3.788;2023-04-25T02:40:06;10.30;99.90
27226;DHT22;14732;51.074;3.788;2023-04-25T02:42:32;10.40;99.90
27226;DHT22;14732;51.074;3.788;2023-04-25T02:44:58;10.50;99.90
27226;DHT22;14732;51.074;3.788;2023-04-25T02:47:24;10.40;99.90
27226;DHT22;14732;51.074;3.788;2023-04-25T02:49:49;10.40;99.90
27226;DHT22;14732;51.074;3.788;2023-04-25T02:52:15;10.40;99.90
27226;DHT22;14732;51.074;3.788;2023-04-25T02:54:41;10.50;99.90
27226;DHT22;14732;51.074;3.788;2023-04-25T02:57:07;10.40;99.90
27226;DHT22;14732;51.074;3.788;2023-04-25T02:59:33;10.30;99.90
27226;DHT22;14732;51.074;3.788;2023-04-25T03:01:59;10.40;99.90
27226;DHT22;14732;51.074;3.788;2023-04-25T03:04:24;10.30;99.90
27226;DHT22;14732;51.074;3.788;2023-04-25T03:06:51;10.40;99.90
27226;DHT22;14732;51.074;3.788;2023-04-25T03:09:17;10.40;99.90
27226;DHT22;14732;51.074;3.788;2023-04-25T03:11:43;10.30;99.90
27226;DHT22;14732;51.074;3.788;2023-04-25T03:14:09;10.30;99.90
27226;DHT22;14732;51.074;3.788;2023-04-25T03:16:35;10.30;99.90
27226;DHT22;14732;51.074;3.788;2023-04-25T03:19:02;10.30;99.90
27226;DHT22;14732;51.074;3.788;2023-04-25T03:21:28;10.40;99.90
27226;DHT22;14732;51.074;3.788;2023-04-25T03:23:54;10.00;99.90
27226;DHT22;14732;51.074;3.788;2023-04-25T03:26:20;10.10;99.90
27226;DHT22;14732;51.074;3.788;2023-04-25T03:28:46;10.00;99.90
27226;DHT22;14732;51.074;3.788;2023-04-25T03:31:11;9.90;99.90
27226;DHT22;14732;51.074;3.788;2023-04-25T03:33:37;9.90;99.90
27226;DHT22;14732;51.074;3.788;2023-04-25T03:36:03;9.80;99.90
27226;DHT22;14732;51.074;3.788;2023-04-25T03:38:29;9.70;99.90
27226;DHT22;14732;51.074;3.788;2023-04-25T03:40:54;9.60;99.90
27226;DHT22;14732;51.074;3.788;2023-04-25T03:43:21;9.50;99.90
27226;DHT22;14732;51.074;3.788;2023-04-25T03:45:47;9.50;99.90
27226;DHT22;14732;51.074;3.788;2023-04-25T03:48:13;9.40;99.90
27226;DHT22;14732;51.074;3.788;2023-04-25T03:50:38;9.50;99.90
27226;DHT22;14732;51.074;3.788;2023-04-25T03:53:04;9.50;99.90
27226;DHT22;14732;51.074;3.788;2023-04-25T03:55:30;9.50;99.90
27226;DHT22;14732;51.074;3.788;2023-04-25T03:57:57;9.50;99.90
27226;DHT22;14732;51.074;3.788;2023-04-25T04:00:23;9.50;99.90
27226;DHT22;14732;51.074;3.788;2023-04-25T04:02:49;9.50;99.90
27226;DHT22;14732;51.074;3.788;2023-04-25T04:05:15;9.60;99.90
27226;DHT22;14732;51.074;3.788;2023-04-25T04:07:40;9.70;99.90
27226;DHT22;14732;51.074;3.788;2023-04-25T04:10:11;9.70;99.90
27226;DHT22;14732;51.074;3.788;2023-04-25T04:12:37;9.70;99.90
27226;DHT22;14732;51.074;3.788;2023-04-25T04:15:05;9.70;99.90
27226;DHT22;14732;51.074;3.788;2023-04-25T04:17:31;9.60;99.90
27226;DHT22;14732;51.074;3.788;2023-04-25T04:19:56;9.60;99.90
27226;DHT22;14732;51.074;3.788;2023-04-25T04:22:22;9.60;99.90
27226;DHT22;14732;51.074;3.788;2023-04-25T04:24:48;9.70;99.90
27226;DHT22;14732;51.074;3.788;2023-04-25T04:27:18;9.70;99.90
27226;DHT22;14732;51.074;3.788;2023-04-25T04:29:48;9.60;99.90
27226;DHT22;14732;51.074;3.788;2023-04-25T04:32:14;9.60;99.90
27226;DHT22;14732;51.074;3.788;2023-04-25T04:34:40;9.50;99.90
27226;DHT22;14732;51.074;3.788;2023-04-25T04:37:06;9.40;99.90
27226;DHT22;14732;51.074;3.788;2023-04-25T04:39:36;9.50;99.90
27226;DHT22;14732;51.074;3.788;2023-04-25T04:42:01;9.50;99.90
27226;DHT22;14732;51.074;3.788;2023-04-25T04:44:29;9.50;99.90
27226;DHT22;14732;51.074;3.788;2023-04-25T04:46:54;9.40;99.90
27226;DHT22;14732;51.074;3.788;2023-04-25T04:49:21;9.40;99.90
27226;DHT22;14732;51.074;3.788;2023-04-25T04:51:46;9.30;99.90
27226;DHT22;14732;51.074;3.788;2023-04-25T04:54:13;9.30;99.90
27226;DHT22;14732;51.074;3.788;2023-04-25T04:56:38;9.50;99.90
27226;DHT22;14732;51.074;3.788;2023-04-25T04:59:04;9.50;99.90
27226;DHT22;14732;51.074;3.788;2023-04-25T05:01:30;9.50;99.90
27226;DHT22;14732;51.074;3.788;2023-04-25T05:03:56;9.60;99.90
27226;DHT22;14732;51.074;3.788;2023-04-25T05:06:26;9.60;99.90
27226;DHT22;14732;51.074;3.788;2023-04-25T05:08:51;9.60;99.90
27226;DHT22;14732;51.074;3.788;2023-04-25T05:11:18;9.70;99.90
27226;DHT22;14732;51.074;3.788;2023-04-25T05:13:44;9.80;99.90
27226;DHT22;14732;51.074;3.788;2023-04-25T05:16:11;9.70;99.90
27226;DHT22;14732;51.074;3.788;2023-04-25T05:18:37;9.70;99.90
27226;DHT22;14732;51.074;3.788;2023-04-25T05:21:03;9.80;99.90
27226;DHT22;14732;51.074;3.788;2023-04-25T05:23:28;9.80;99.90
27226;DHT22;14732;51.074;3.788;2023-04-25T05:25:56;9.90;99.90
27226;DHT22;14732;51.074;3.788;2023-04-25T05:28:21;9.90;99.90
27226;DHT22;14732;51.074;3.788;2023-04-25T05:30:47;10.00;99.90
27226;DHT22;14732;51.074;3.788;2023-04-25T05:33:13;9.90;99.90
27226;DHT22;14732;51.074;3.788;2023-04-25T05:35:39;10.00;99.90
27226;DHT22;14732;51.074;3.788;2023-04-25T05:38:05;10.20;99.90
27226;DHT22;14732;51.074;3.788;2023-04-25T05:40:31;10.00;99.90
27226;DHT22;14732;51.074;3.788;2023-04-25T05:42:56;9.90;99.90
27226;DHT22;14732;51.074;3.788;2023-04-25T05:45:22;9.90;99.90
27226;DHT22;14732;51.074;3.788;2023-04-25T05:47:48;9.90;99.90
27226;DHT22;14732;51.074;3.788;2023-04-25T05:50:13;10.10;99.90
27226;DHT22;14732;51.074;3.788;2023-04-25T05:52:39;10.20;99.90
27226;DHT22;14732;51.074;3.788;2023-04-25T05:55:05;10.10;99.90
27226;DHT22;14732;51.074;3.788;2023-04-25T05:57:31;10.30;99.90
27226;DHT22;14732;51.074;3.788;2023-04-25T05:59:57;10.40;99.90
27226;DHT22;14732;51.074;3.788;2023-04-25T06:02:23;10.50;99.90
27226;DHT22;14732;51.074;3.788;2023-04-25T06:04:49;10.60;99.90
27226;DHT22;14732;51.074;3.788;2023-04-25T06:07:16;10.60;99.90
27226;DHT22;14732;51.074;3.788;2023-04-25T06:09:41;10.70;99.90
27226;DHT22;14732;51.074;3.788;2023-04-25T06:12:07;10.90;99.90
27226;DHT22;14732;51.074;3.788;2023-04-25T06:14:36;10.80;99.90
27226;DHT22;14732;51.074;3.788;2023-04-25T06:17:02;10.60;99.90
27226;DHT22;14732;51.074;3.788;2023-04-25T06:19:35;10.80;99.90
27226;DHT22;14732;51.074;3.788;2023-04-25T06:22:01;10.70;99.90
27226;DHT22;14732;51.074;3.788;2023-04-25T06:24:27;10.70;99.90
27226;DHT22;14732;51.074;3.788;2023-04-25T06:26:53;11.00;99.90
27226;DHT22;14732;51.074;3.788;2023-04-25T06:29:19;11.00;99.90
27226;DHT22;14732;51.074;3.788;2023-04-25T06:31:44;10.90;99.90
27226;DHT22;14732;51.074;3.788;2023-04-25T06:34:10;11.00;99.90
27226;DHT22;14732;51.074;3.788;2023-04-25T06:36:36;10.80;99.90
27226;DHT22;14732;51.074;3.788;2023-04-25T06:39:02;10.80;99.90
27226;DHT22;14732;51.074;3.788;2023-04-25T06:41:28;10.80;99.90
27226;DHT22;14732;51.074;3.788;2023-04-25T06:43:53;10.90;99.90
27226;DHT22;14732;51.074;3.788;2023-04-25T06:46:19;10.90;99.90
27226;DHT22;14732;51.074;3.788;2023-04-25T06:48:45;10.60;99.90
27226;DHT22;14732;51.074;3.788;2023-04-25T06:51:11;10.50;99.90
27226;DHT22;14732;51.074;3.788;2023-04-25T06:53:38;10.50;99.90
27226;DHT22;14732;51.074;3.788;2023-04-25T06:56:04;10.70;99.90
27226;DHT22;14732;51.074;3.788;2023-04-25T06:58:30;10.80;99.90
27226;DHT22;14732;51.074;3.788;2023-04-25T07:00:55;10.70;99.90
27226;DHT22;14732;51.074;3.788;2023-04-25T07:03:21;10.80;99.90
27226;DHT22;14732;51.074;3.788;2023-04-25T07:05:46;10.80;99.90
27226;DHT22;14732;51.074;3.788;2023-04-25T07:08:12;10.90;99.90
27226;DHT22;14732;51.074;3.788;2023-04-25T07:10:38;11.00;99.90
27226;DHT22;14732;51.074;3.788;2023-04-25T07:13:03;11.10;99.90
27226;DHT22;14732;51.074;3.788;2023-04-25T07:15:29;11.60;99.90
27226;DHT22;14732;51.074;3.788;2023-04-25T07:17:55;11.90;99.90
27226;DHT22;14732;51.074;3.788;2023-04-25T07:20:20;12.20;99.90
27226;DHT22;14732;51.074;3.788;2023-04-25T07:22:46;12.60;99.90
27226;DHT22;14732;51.074;3.788;2023-04-25T07:25:12;12.70;99.90
27226;DHT22;14732;51.074;3.788;2023-04-25T07:27:38;12.90;99.90
27226;DHT22;14732;51.074;3.788;2023-04-25T07:30:05;13.30;99.90
27226;DHT22;14732;51.074;3.788;2023-04-25T07:32:30;13.30;99.90
27226;DHT22;14732;51.074;3.788;2023-04-25T07:34:56;13.80;99.90
27226;DHT22;14732;51.074;3.788;2023-04-25T07:37:22;13.70;99.90
27226;DHT22;14732;51.074;3.788;2023-04-25T07:39:47;13.70;99.90
27226;DHT22;14732;51.074;3.788;2023-04-25T07:42:13;13.70;99.90
27226;DHT22;14732;51.074;3.788;2023-04-25T07:44:39;12.90;99.90
27226;DHT22;14732;51.074;3.788;2023-04-25T07:47:09;13.00;99.90
27226;DHT22;14732;51.074;3.788;2023-04-25T07:49:35;12.70;99.90
27226;DHT22;14732;51.074;3.788;2023-04-25T07:52:02;12.40;99.90
27226;DHT22;14732;51.074;3.788;2023-04-25T07:54:28;12.30;99.90
27226;DHT22;14732;51.074;3.788;2023-04-25T07:56:53;12.60;99.90
27226;DHT22;14732;51.074;3.788;2023-04-25T07:59:19;13.00;99.90
27226;DHT22;14732;51.074;3.788;2023-04-25T08:01:45;13.30;99.90
27226;DHT22;14732;51.074;3.788;2023-04-25T08:04:11;13.50;99.90
27226;DHT22;14732;51.074;3.788;2023-04-25T08:06:37;14.30;99.90
27226;DHT22;14732;51.074;3.788;2023-04-25T08:09:03;14.40;99.90
27226;DHT22;14732;51.074;3.788;2023-04-25T08:11:29;14.50;99.90
27226;DHT22;14732;51.074;3.788;2023-04-25T08:13:55;14.60;99.90
27226;DHT22;14732;51.074;3.788;2023-04-25T08:16:21;14.10;99.90
27226;DHT22;14732;51.074;3.788;2023-04-25T08:18:47;14.40;99.90
27226;DHT22;14732;51.074;3.788;2023-04-25T08:21:12;14.70;99.90
27226;DHT22;14732;51.074;3.788;2023-04-25T08:23:39;15.20;99.90
27226;DHT22;14732;51.074;3.788;2023-04-25T08:26:05;15.30;99.90
27226;DHT22;14732;51.074;3.788;2023-04-25T08:28:31;15.00;99.90
27226;DHT22;14732;51.074;3.788;2023-04-25T08:30:57;15.30;99.90
27226;DHT22;14732;51.074;3.788;2023-04-25T08:33:22;15.00;99.90
27226;DHT22;14732;51.074;3.788;2023-04-25T08:35:48;15.40;99.90
27226;DHT22;14732;51.074;3.788;2023-04-25T08:38:14;15.40;99.90
27226;DHT22;14732;51.074;3.788;2023-04-25T08:40:40;16.30;99.90
27226;DHT22;14732;51.074;3.788;2023-04-25T08:43:07;16.80;99.90
27226;DHT22;14732;51.074;3.788;2023-04-25T08:45:39;16.70;99.90
27226;DHT22;14732;51.074;3.788;2023-04-25T08:48:15;17.40;99.90
27226;DHT22;14732;51.074;3.788;2023-04-25T08:50:49;18.50;99.90
27226;DHT22;14732;51.074;3.788;2023-04-25T08:53:16;19.00;99.00
27226;DHT22;14732;51.074;3.788;2023-04-25T08:55:45;19.50;97.90
27226;DHT22;14732;51.074;3.788;2023-04-25T08:58:12;21.50;96.10
27226;DHT22;14732;51.074;3.788;2023-04-25T09:00:38;25.20;89.40
27226;DHT22;14732;51.074;3.788;2023-04-25T09:03:05;26.40;72.30
27226;DHT22;14732;51.074;3.788;2023-04-25T09:05:33;24.30;73.30
27226;DHT22;14732;51.074;3.788;2023-04-25T09:07:59;22.20;73.40
27226;DHT22;14732;51.074;3.788;2023-04-25T09:10:26;20.40;76.80
27226;DHT22;14732;51.074;3.788;2023-04-25T09:13:12;19.50;80.30
27226;DHT22;14732;51.074;3.788;2023-04-25T09:18:13;16.30;94.30
27226;DHT22;14732;51.074;3.788;2023-04-25T09:20:42;15.50;98.80
27226;DHT22;14732;51.074;3.788;2023-04-25T09:23:09;14.60;99.90
27226;DHT22;14732;51.074;3.788;2023-04-25T09:25:36;14.00;99.90
27226;DHT22;14732;51.074;3.788;2023-04-25T09:28:05;13.60;99.90
27226;DHT22;14732;51.074;3.788;2023-04-25T09:30:34;13.40;99.90
27226;DHT22;14732;51.074;3.788;2023-04-25T09:33:07;13.00;99.90
27226;DHT22;14732;51.074;3.788;2023-04-25T09:35:38;12.90;99.90
27226;DHT22;14732;51.074;3.788;2023-04-25T09:38:11;12.50;99.90
27226;DHT22;14732;51.074;3.788;2023-04-25T09:40:46;12.70;99.90
27226;DHT22;14732;51.074;3.788;2023-04-25T09:43:22;12.70;99.90
27226;DHT22;14732;51.074;3.788;2023-04-25T09:45:48;12.90;99.90
27226;DHT22;14732;51.074;3.788;2023-04-25T09:48:18;13.00;99.90
27226;DHT22;14732;51.074;3.788;2023-04-25T09:51:06;12.90;99.90
27226;DHT22;14732;51.074;3.788;2023-04-25T09:53:33;13.10;99.90
27226;DHT22;14732;51.074;3.788;2023-04-25T09:56:00;13.20;99.90
27226;DHT22;14732;51.074;3.788;2023-04-25T09:58:29;13.40;99.90
27226;DHT22;14732;51.074;3.788;2023-04-25T10:01:00;13.50;99.90
27226;DHT22;14732;51.074;3.788;2023-04-25T10:03:26;13.30;99.90
27226;DHT22;14732;51.074;3.788;2023-04-25T10:05:52;13.20;99.90
27226;DHT22;14732;51.074;3.788;2023-04-25T10:08:20;13.50;99.90
27226;DHT22;14732;51.074;3.788;2023-04-25T10:10:46;13.40;99.90
27226;DHT22;14732;51.074;3.788;2023-04-25T10:13:14;13.40;99.90
27226;DHT22;14732;51.074;3.788;2023-04-25T10:15:41;13.60;99.90
27226;DHT22;14732;51.074;3.788;2023-04-25T10:18:07;13.90;99.90
27226;DHT22;14732;51.074;3.788;2023-04-25T10:20:33;14.40;99.90
27226;DHT22;14732;51.074;3.788;2023-04-25T10:23:08;14.30;99.90
27226;DHT22;14732;51.074;3.788;2023-04-25T10:25:37;14.10;99.90
27226;DHT22;14732;51.074;3.788;2023-04-25T10:28:03;13.90;99.90
27226;DHT22;14732;51.074;3.788;2023-04-25T10:30:29;13.60;99.90
27226;DHT22;14732;51.074;3.788;2023-04-25T10:32:56;13.50;99.90
27226;DHT22;14732;51.074;3.788;2023-04-25T10:35:28;13.40;99.90
27226;DHT22;14732;51.074;3.788;2023-04-25T10:38:04;13.30;99.90
27226;DHT22;14732;51.074;3.788;2023-04-25T10:40:31;13.30;99.90
27226;DHT22;14732;51.074;3.788;2023-04-25T10:45:54;13.00;99.90
27226;DHT22;14732;51.074;3.788;2023-04-25T10:48:27;13.20;99.90
27226;DHT22;14732;51.074;3.788;2023-04-25T10:51:19;13.30;99.90
27226;DHT22;14732;51.074;3.788;2023-04-25T10:56:29;13.40;99.90
27226;DHT22;14732;51.074;3.788;2023-04-25T10:59:15;13.30;99.90
27226;DHT22;14732;51.074;3.788;2023-04-25T11:01:51;13.40;99.90
27226;DHT22;14732;51.074;3.788;2023-04-25T11:07:19;14.30;99.90
27226;DHT22;14732;51.074;3.788;2023-04-25T11:09:49;14.50;99.90
27226;DHT22;14732;51.074;3.788;2023-04-25T11:12:15;14.60;99.90
27226;DHT22;14732;51.074;3.788;2023-04-25T11:14:42;14.60;99.90
27226;DHT22;14732;51.074;3.788;2023-04-25T11:17:08;14.50;99.90
27226;DHT22;14732;51.074;3.788;2023-04-25T11:19:34;14.10;99.90
27226;DHT22;14732;51.074;3.788;2023-04-25T11:22:01;14.20;99.90
27226;DHT22;14732;51.074;3.788;2023-04-25T11:24:32;13.90;99.90
27226;DHT22;14732;51.074;3.788;2023-04-25T11:26:58;14.00;99.90
27226;DHT22;14732;51.074;3.788;2023-04-25T11:29:28;14.20;99.90
27226;DHT22;14732;51.074;3.788;2023-04-25T11:31:55;14.50;99.90
27226;DHT22;14732;51.074;3.788;2023-04-25T11:34:23;14.70;99.90
27226;DHT22;14732;51.074;3.788;2023-04-25T11:36:50;14.80;99.90
27226;DHT22;14732;51.074;3.788;2023-04-25T11:39:18;15.20;99.90
27226;DHT22;14732;51.074;3.788;2023-04-25T11:41:44;15.50;99.90
27226;DHT22;14732;51.074;3.788;2023-04-25T11:44:10;15.70;99.90
27226;DHT22;14732;51.074;3.788;2023-04-25T11:46:36;15.50;99.90
27226;DHT22;14732;51.074;3.788;2023-04-25T11:49:02;15.40;98.00
27226;DHT22;14732;51.074;3.788;2023-04-25T11:51:29;15.40;97.60
27226;DHT22;14732;51.074;3.788;2023-04-25T11:53:55;15.60;98.30
27226;DHT22;14732;51.074;3.788;2023-04-25T11:56:21;15.70;97.00
27226;DHT22;14732;51.074;3.788;2023-04-25T11:59:00;15.30;97.70
27226;DHT22;14732;51.074;3.788;2023-04-25T12:01:27;14.90;99.90
27226;DHT22;14732;51.074;3.788;2023-04-25T12:03:53;15.00;99.10
27226;DHT22;14732;51.074;3.788;2023-04-25T12:06:19;15.10;99.90
27226;DHT22;14732;51.074;3.788;2023-04-25T12:09:02;15.10;99.90
27226;DHT22;14732;51.074;3.788;2023-04-25T12:11:30;14.90;99.90
27226;DHT22;14732;51.074;3.788;2023-04-25T12:14:02;14.80;99.90
27226;DHT22;14732;51.074;3.788;2023-04-25T12:16:28;14.80;99.90
27226;DHT22;14732;51.074;3.788;2023-04-25T12:18:53;14.90;99.90
27226;DHT22;14732;51.074;3.788;2023-04-25T12:21:20;14.90;99.90
27226;DHT22;14732;51.074;3.788;2023-04-25T12:23:46;15.10;99.90
27226;DHT22;14732;51.074;3.788;2023-04-25T12:26:12;15.00;99.90
27226;DHT22;14732;51.074;3.788;2023-04-25T12:28:37;14.60;99.90
27226;DHT22;14732;51.074;3.788;2023-04-25T12:31:05;14.70;99.90
27226;DHT22;14732;51.074;3.788;2023-04-25T12:33:36;14.50;99.90
27226;DHT22;14732;51.074;3.788;2023-04-25T12:36:03;14.60;99.90
27226;DHT22;14732;51.074;3.788;2023-04-25T12:38:37;14.60;99.90
27226;DHT22;14732;51.074;3.788;2023-04-25T12:41:03;14.60;99.90
27226;DHT22;14732;51.074;3.788;2023-04-25T12:43:29;14.60;99.90
27226;DHT22;14732;51.074;3.788;2023-04-25T12:45:55;15.00;99.90
27226;DHT22;14732;51.074;3.788;2023-04-25T12:48:22;15.10;99.90
27226;DHT22;14732;51.074;3.788;2023-04-25T12:50:48;15.00;99.90
27226;DHT22;14732;51.074;3.788;2023-04-25T12:53:22;15.10;99.90
27226;DHT22;14732;51.074;3.788;2023-04-25T12:55:48;14.80;99.90
27226;DHT22;14732;51.074;3.788;2023-04-25T12:58:15;14.80;99.90
27226;DHT22;14732;51.074;3.788;2023-04-25T13:00:41;14.70;99.90
27226;DHT22;14732;51.074;3.788;2023-04-25T13:03:08;14.70;99.90
27226;DHT22;14732;51.074;3.788;2023-04-25T13:05:34;14.50;99.90
27226;DHT22;14732;51.074;3.788;2023-04-25T13:08:00;14.20;99.90
27226;DHT22;14732;51.074;3.788;2023-04-25T13:10:25;14.20;99.90
27226;DHT22;14732;51.074;3.788;2023-04-25T13:12:51;14.30;99.90
27226;DHT22;14732;51.074;3.788;2023-04-25T13:15:17;14.20;99.90
27226;DHT22;14732;51.074;3.788;2023-04-25T13:17:43;14.00;99.90
27226;DHT22;14732;51.074;3.788;2023-04-25T13:20:09;14.00;99.90
27226;DHT22;14732;51.074;3.788;2023-04-25T13:22:38;13.70;99.90
27226;DHT22;14732;51.074;3.788;2023-04-25T13:25:06;14.00;99.90
27226;DHT22;14732;51.074;3.788;2023-04-25T13:27:33;14.10;99.90
27226;DHT22;14732;51.074;3.788;2023-04-25T13:30:03;14.10;99.90
27226;DHT22;14732;51.074;3.788;2023-04-25T13:32:33;14.30;99.90
27226;DHT22;14732;51.074;3.788;2023-04-25T13:35:01;14.40;99.90
27226;DHT22;14732;51.074;3.788;2023-04-25T13:37:27;14.40;99.90
27226;DHT22;14732;51.074;3.788;2023-04-25T13:39:55;14.60;99.90
27226;DHT22;14732;51.074;3.788;2023-04-25T13:42:22;14.40;99.90
27226;DHT22;14732;51.074;3.788;2023-04-25T13:44:48;14.40;99.90
27226;DHT22;14732;51.074;3.788;2023-04-25T13:47:14;14.50;99.90
27226;DHT22;14732;51.074;3.788;2023-04-25T13:49:39;14.50;99.90
27226;DHT22;14732;51.074;3.788;2023-04-25T13:52:05;14.70;99.90
27226;DHT22;14732;51.074;3.788;2023-04-25T13:54:31;14.80;99.90
27226;DHT22;14732;51.074;3.788;2023-04-25T13:56:57;15.00;99.90
27226;DHT22;14732;51.074;3.788;2023-04-25T13:59:24;15.20;99.90
27226;DHT22;14732;51.074;3.788;2023-04-25T14:01:51;15.30;99.90
27226;DHT22;14732;51.074;3.788;2023-04-25T14:04:17;15.20;99.90
27226;DHT22;14732;51.074;3.788;2023-04-25T14:06:43;15.30;99.90
27226;DHT22;14732;51.074;3.788;2023-04-25T14:09:08;15.10;99.90
27226;DHT22;14732;51.074;3.788;2023-04-25T14:11:36;15.30;99.90
27226;DHT22;14732;51.074;3.788;2023-04-25T14:14:02;15.00;99.90
27226;DHT22;14732;51.074;3.788;2023-04-25T14:16:29;15.00;99.90
27226;DHT22;14732;51.074;3.788;2023-04-25T14:18:55;14.80;99.90
27226;DHT22;14732;51.074;3.788;2023-04-25T14:21:21;15.00;99.90
27226;DHT22;14732;51.074;3.788;2023-04-25T14:23:47;15.20;99.40
27226;DHT22;14732;51.074;3.788;2023-04-25T14:26:13;15.40;98.70
27226;DHT22;14732;51.074;3.788;2023-04-25T14:28:38;15.20;98.70
27226;DHT22;14732;51.074;3.788;2023-04-25T14:31:04;15.00;99.30
27226;DHT22;14732;51.074;3.788;2023-04-25T14:33:30;15.20;99.40
27226;DHT22;14732;51.074;3.788;2023-04-25T14:35:57;14.80;99.40
27226;DHT22;14732;51.074;3.788;2023-04-25T14:38:22;14.90;99.60
27226;DHT22;14732;51.074;3.788;2023-04-25T14:40:51;15.00;99.70
27226;DHT22;14732;51.074;3.788;2023-04-25T14:43:17;15.20;98.10
27226;DHT22;14732;51.074;3.788;2023-04-25T14:45:43;15.00;98.00
27226;DHT22;14732;51.074;3.788;2023-04-25T14:48:08;14.80;98.70
27226;DHT22;14732;51.074;3.788;2023-04-25T14:50:34;14.90;97.60
27226;DHT22;14732;51.074;3.788;2023-04-25T14:53:00;14.90;98.20
27226;DHT22;14732;51.074;3.788;2023-04-25T14:55:29;14.70;98.50
27226;DHT22;14732;51.074;3.788;2023-04-25T14:57:54;14.60;98.80
27226;DHT22;14732;51.074;3.788;2023-04-25T15:00:21;14.50;99.70
27226;DHT22;14732;51.074;3.788;2023-04-25T15:02:48;14.20;99.90
27226;DHT22;14732;51.074;3.788;2023-04-25T15:05:14;14.10;99.90
27226;DHT22;14732;51.074;3.788;2023-04-25T15:07:40;14.10;99.90
27226;DHT22;14732;51.074;3.788;2023-04-25T15:10:10;14.40;99.90
27226;DHT22;14732;51.074;3.788;2023-04-25T15:12:45;14.40;99.90
27226;DHT22;14732;51.074;3.788;2023-04-25T15:15:11;14.40;99.20
27226;DHT22;14732;51.074;3.788;2023-04-25T15:17:43;14.60;98.30
27226;DHT22;14732;51.074;3.788;2023-04-25T15:20:11;14.50;99.00
27226;DHT22;14732;51.074;3.788;2023-04-25T15:22:38;14.70;99.30
27226;DHT22;14732;51.074;3.788;2023-04-25T15:25:04;15.00;98.00
27226;DHT22;14732;51.074;3.788;2023-04-25T15:27:30;14.80;99.50
27226;DHT22;14732;51.074;3.788;2023-04-25T15:29:56;15.00;99.90
27226;DHT22;14732;51.074;3.788;2023-04-25T15:32:22;15.10;99.90
27226;DHT22;14732;51.074;3.788;2023-04-25T15:34:48;15.20;99.90
27226;DHT22;14732;51.074;3.788;2023-04-25T15:37:15;15.20;99.90
27226;DHT22;14732;51.074;3.788;2023-04-25T15:39:40;14.90;99.90
27226;DHT22;14732;51.074;3.788;2023-04-25T15:42:07;14.70;99.90